Salinas, California
Current Conditions -  °F | °C
As of 10:53 AM on Thursday 30 Oct 2014 (Local Time) from KSNS Reporting Station
Clear Clear  
Wind Chill: 64°   Ceiling: Unl
Heat Index: 64°   Visibility: 10mi
Dew Point: 46°   Wind: 0mph
Humidity: 52%   Direction: NA
Pressure: 29.95"   Gusts: NA
Location:  36.67°N, 121.65°W
Report Text: KSNS 301753Z 00000KT 10SM CLR 18/08 A2995 RMK AO2 SLP151 T01780078 10183 20150 50005
Loading
Personal Weather Stations






























Interactive Weather Map
Tropical Storm Tracking
New forecast layout! Learn more

10-Day Weather Forecast

Advertisements
Track Severe Weather on mobile